Terminal Aerodrome Forecast
Issued by NWS

Home | Current Version | Previous Version | Text Only | Print | Product List | Glossary On
Versions: 1 2 3 4 5 6 7 8 9 10 11 12 13 14 15 16 17 18 19 20
000
FTUS43 KMPX 272004 AAA
TAFRWF
TAF AMD
KRWF 272004Z 2720/2818 15010KT P6SM OVC009
     FM272300 15011KT P6SM OVC012
     FM281000 16013KT 6SM BR OVC008=

USA.gov is the U.S. government's official web portal to all federal, state and local government web resources and services.